sensor_id;sensor_type;location;lat;lon;timestamp;P1;durP1;ratioP1;P2;durP2;ratioP2
21416;SDS011;10869;52.238;10.716;2022-09-17T03:01:39;26.20;;;4.47;;
21416;SDS011;10869;52.238;10.716;2022-09-17T03:04:16;21.13;;;4.77;;
21416;SDS011;10869;52.238;10.716;2022-09-17T03:06:44;20.77;;;4.33;;
21416;SDS011;10869;52.238;10.716;2022-09-17T03:09:12;27.73;;;5.03;;
21416;SDS011;10869;52.238;10.716;2022-09-17T03:11:39;21.57;;;4.33;;
21416;SDS011;10869;52.238;10.716;2022-09-17T03:14:06;23.67;;;4.50;;
21416;SDS011;10869;52.238;10.716;2022-09-17T03:16:32;20.27;;;4.97;;
21416;SDS011;10869;52.238;10.716;2022-09-17T03:18:57;24.17;;;4.77;;
21416;SDS011;10869;52.238;10.716;2022-09-17T03:21:23;22.00;;;4.53;;
21416;SDS011;10869;52.238;10.716;2022-09-17T03:23:49;27.20;;;6.03;;
21416;SDS011;10869;52.238;10.716;2022-09-17T03:26:15;22.80;;;5.13;;
21416;SDS011;10869;52.238;10.716;2022-09-17T03:28:41;23.87;;;5.13;;
21416;SDS011;10869;52.238;10.716;2022-09-17T03:31:06;29.47;;;5.23;;
21416;SDS011;10869;52.238;10.716;2022-09-17T03:33:32;28.30;;;5.23;;
21416;SDS011;10869;52.238;10.716;2022-09-17T03:35:58;22.30;;;5.20;;
21416;SDS011;10869;52.238;10.716;2022-09-17T03:38:24;28.50;;;5.10;;
21416;SDS011;10869;52.238;10.716;2022-09-17T03:40:59;21.17;;;4.73;;
21416;SDS011;10869;52.238;10.716;2022-09-17T03:43:26;18.43;;;4.53;;
21416;SDS011;10869;52.238;10.716;2022-09-17T03:45:52;30.93;;;5.20;;
21416;SDS011;10869;52.238;10.716;2022-09-17T03:48:18;26.10;;;4.87;;
21416;SDS011;10869;52.238;10.716;2022-09-17T03:50:44;25.17;;;5.53;;
21416;SDS011;10869;52.238;10.716;2022-09-17T03:53:10;25.33;;;5.67;;
21416;SDS011;10869;52.238;10.716;2022-09-17T03:55:39;22.30;;;5.00;;
21416;SDS011;10869;52.238;10.716;2022-09-17T03:58:05;22.90;;;4.57;;
21416;SDS011;10869;52.238;10.716;2022-09-17T04:00:31;24.73;;;5.40;;
21416;SDS011;10869;52.238;10.716;2022-09-17T04:02:57;17.20;;;4.63;;
21416;SDS011;10869;52.238;10.716;2022-09-17T04:05:23;20.93;;;4.53;;
21416;SDS011;10869;52.238;10.716;2022-09-17T04:07:49;21.57;;;4.83;;
21416;SDS011;10869;52.238;10.716;2022-09-17T04:10:15;20.07;;;5.00;;
21416;SDS011;10869;52.238;10.716;2022-09-17T04:12:40;22.57;;;4.83;;
21416;SDS011;10869;52.238;10.716;2022-09-17T04:15:06;27.40;;;5.83;;
21416;SDS011;10869;52.238;10.716;2022-09-17T04:17:33;20.00;;;4.70;;
21416;SDS011;10869;52.238;10.716;2022-09-17T04:19:59;20.97;;;5.13;;
21416;SDS011;10869;52.238;10.716;2022-09-17T04:22:25;19.93;;;4.33;;
21416;SDS011;10869;52.238;10.716;2022-09-17T04:24:51;23.70;;;4.97;;
21416;SDS011;10869;52.238;10.716;2022-09-17T04:27:16;27.93;;;5.27;;
21416;SDS011;10869;52.238;10.716;2022-09-17T04:29:42;24.23;;;5.43;;
21416;SDS011;10869;52.238;10.716;2022-09-17T04:32:08;30.03;;;6.20;;
21416;SDS011;10869;52.238;10.716;2022-09-17T04:34:33;18.23;;;4.63;;
21416;SDS011;10869;52.238;10.716;2022-09-17T04:36:59;21.57;;;5.50;;
21416;SDS011;10869;52.238;10.716;2022-09-17T04:39:25;19.17;;;4.80;;
21416;SDS011;10869;52.238;10.716;2022-09-17T04:41:51;25.23;;;4.90;;
21416;SDS011;10869;52.238;10.716;2022-09-17T04:44:17;16.67;;;4.17;;
21416;SDS011;10869;52.238;10.716;2022-09-17T04:46:42;23.80;;;4.37;;
21416;SDS011;10869;52.238;10.716;2022-09-17T04:49:08;22.90;;;4.23;;
21416;SDS011;10869;52.238;10.716;2022-09-17T04:51:35;17.00;;;4.93;;
21416;SDS011;10869;52.238;10.716;2022-09-17T04:54:01;21.13;;;4.87;;
21416;SDS011;10869;52.238;10.716;2022-09-17T04:56:26;20.40;;;3.97;;
21416;SDS011;10869;52.238;10.716;2022-09-17T04:58:52;24.90;;;3.67;;
21416;SDS011;10869;52.238;10.716;2022-09-17T05:01:18;16.13;;;4.47;;
21416;SDS011;10869;52.238;10.716;2022-09-17T05:03:44;22.53;;;4.50;;
21416;SDS011;10869;52.238;10.716;2022-09-17T05:06:10;25.30;;;4.90;;
21416;SDS011;10869;52.238;10.716;2022-09-17T05:08:36;16.07;;;3.80;;
21416;SDS011;10869;52.238;10.716;2022-09-17T05:11:02;24.67;;;4.43;;
21416;SDS011;10869;52.238;10.716;2022-09-17T05:13:28;25.57;;;4.10;;
21416;SDS011;10869;52.238;10.716;2022-09-17T05:15:54;16.23;;;3.87;;
21416;SDS011;10869;52.238;10.716;2022-09-17T05:18:22;16.40;;;3.67;;
21416;SDS011;10869;52.238;10.716;2022-09-17T05:20:48;15.87;;;3.80;;
21416;SDS011;10869;52.238;10.716;2022-09-17T05:23:17;22.73;;;5.00;;
21416;SDS011;10869;52.238;10.716;2022-09-17T05:25:50;18.13;;;4.00;;
21416;SDS011;10869;52.238;10.716;2022-09-17T05:28:17;17.43;;;3.53;;
21416;SDS011;10869;52.238;10.716;2022-09-17T05:30:42;16.53;;;3.53;;
21416;SDS011;10869;52.238;10.716;2022-09-17T05:33:08;22.00;;;4.07;;
21416;SDS011;10869;52.238;10.716;2022-09-17T05:35:34;19.53;;;5.00;;
21416;SDS011;10869;52.238;10.716;2022-09-17T05:38:01;18.83;;;3.73;;
21416;SDS011;10869;52.238;10.716;2022-09-17T05:40:29;18.93;;;4.47;;
21416;SDS011;10869;52.238;10.716;2022-09-17T05:43:00;23.27;;;4.07;;
21416;SDS011;10869;52.238;10.716;2022-09-17T05:45:31;20.63;;;4.30;;
21416;SDS011;10869;52.238;10.716;2022-09-17T05:47:58;20.70;;;3.53;;
21416;SDS011;10869;52.238;10.716;2022-09-17T05:50:26;17.87;;;3.80;;
21416;SDS011;10869;52.238;10.716;2022-09-17T05:52:53;18.77;;;3.83;;
21416;SDS011;10869;52.238;10.716;2022-09-17T05:55:19;20.50;;;3.87;;
21416;SDS011;10869;52.238;10.716;2022-09-17T06:01:08;21.30;;;2.93;;
21416;SDS011;10869;52.238;10.716;2022-09-17T06:03:40;13.33;;;3.03;;
21416;SDS011;10869;52.238;10.716;2022-09-17T06:06:06;21.67;;;4.47;;
21416;SDS011;10869;52.238;10.716;2022-09-17T06:08:32;18.90;;;3.90;;
21416;SDS011;10869;52.238;10.716;2022-09-17T06:11:04;21.77;;;4.47;;
21416;SDS011;10869;52.238;10.716;2022-09-17T06:16:53;19.00;;;3.03;;
21416;SDS011;10869;52.238;10.716;2022-09-17T06:22:42;27.27;;;4.00;;
21416;SDS011;10869;52.238;10.716;2022-09-17T06:28:30;25.47;;;4.07;;
21416;SDS011;10869;52.238;10.716;2022-09-17T06:34:18;20.37;;;3.40;;
21416;SDS011;10869;52.238;10.716;2022-09-17T06:40:06;21.80;;;3.97;;
21416;SDS011;10869;52.238;10.716;2022-09-17T06:42:33;18.60;;;3.83;;
21416;SDS011;10869;52.238;10.716;2022-09-17T06:44:58;20.10;;;3.50;;
21416;SDS011;10869;52.238;10.716;2022-09-17T06:47:24;22.10;;;3.97;;
21416;SDS011;10869;52.238;10.716;2022-09-17T06:49:50;20.30;;;3.30;;
21416;SDS011;10869;52.238;10.716;2022-09-17T06:52:16;16.77;;;3.00;;
21416;SDS011;10869;52.238;10.716;2022-09-17T06:54:42;18.93;;;3.30;;
21416;SDS011;10869;52.238;10.716;2022-09-17T06:57:07;18.43;;;3.17;;
21416;SDS011;10869;52.238;10.716;2022-09-17T06:59:33;21.13;;;4.03;;
21416;SDS011;10869;52.238;10.716;2022-09-17T07:01:59;22.93;;;4.37;;
21416;SDS011;10869;52.238;10.716;2022-09-17T07:04:25;23.87;;;4.47;;
21416;SDS011;10869;52.238;10.716;2022-09-17T07:06:52;16.87;;;2.87;;
21416;SDS011;10869;52.238;10.716;2022-09-17T07:09:17;15.47;;;3.53;;
21416;SDS011;10869;52.238;10.716;2022-09-17T07:11:43;16.47;;;4.07;;
21416;SDS011;10869;52.238;10.716;2022-09-17T07:14:09;21.83;;;4.43;;
21416;SDS011;10869;52.238;10.716;2022-09-17T07:16:35;24.67;;;4.43;;
21416;SDS011;10869;52.238;10.716;2022-09-17T07:19:04;17.67;;;3.30;;
21416;SDS011;10869;52.238;10.716;2022-09-17T07:21:30;26.87;;;4.30;;
21416;SDS011;10869;52.238;10.716;2022-09-17T07:23:55;20.57;;;3.40;;
21416;SDS011;10869;52.238;10.716;2022-09-17T07:26:34;19.63;;;3.57;;
21416;SDS011;10869;52.238;10.716;2022-09-17T07:29:00;18.67;;;4.23;;
21416;SDS011;10869;52.238;10.716;2022-09-17T07:31:25;29.63;;;4.37;;
21416;SDS011;10869;52.238;10.716;2022-09-17T07:36:28;14.50;;;3.30;;
21416;SDS011;10869;52.238;10.716;2022-09-17T07:38:54;22.07;;;3.53;;
21416;SDS011;10869;52.238;10.716;2022-09-17T07:41:19;23.40;;;3.90;;
21416;SDS011;10869;52.238;10.716;2022-09-17T07:43:45;22.50;;;4.03;;
21416;SDS011;10869;52.238;10.716;2022-09-17T07:46:14;18.17;;;3.20;;
21416;SDS011;10869;52.238;10.716;2022-09-17T07:48:41;21.17;;;3.60;;
21416;SDS011;10869;52.238;10.716;2022-09-17T07:51:07;17.37;;;3.63;;
21416;SDS011;10869;52.238;10.716;2022-09-17T07:53:38;20.27;;;3.10;;
21416;SDS011;10869;52.238;10.716;2022-09-17T07:56:04;22.57;;;3.43;;
21416;SDS011;10869;52.238;10.716;2022-09-17T07:58:31;20.73;;;3.33;;
21416;SDS011;10869;52.238;10.716;2022-09-17T08:01:01;17.53;;;3.10;;
21416;SDS011;10869;52.238;10.716;2022-09-17T08:03:30;19.73;;;4.20;;
21416;SDS011;10869;52.238;10.716;2022-09-17T08:06:06;15.57;;;2.93;;
21416;SDS011;10869;52.238;10.716;2022-09-17T08:08:33;17.70;;;3.70;;
21416;SDS011;10869;52.238;10.716;2022-09-17T08:11:33;18.10;;;3.50;;
21416;SDS011;10869;52.238;10.716;2022-09-17T08:17:15;14.10;;;2.70;;
21416;SDS011;10869;52.238;10.716;2022-09-17T08:23:03;16.73;;;2.93;;
21416;SDS011;10869;52.238;10.716;2022-09-17T08:25:29;15.97;;;3.33;;
21416;SDS011;10869;52.238;10.716;2022-09-17T08:27:54;11.60;;;2.80;;
21416;SDS011;10869;52.238;10.716;2022-09-17T08:30:21;24.50;;;3.73;;
21416;SDS011;10869;52.238;10.716;2022-09-17T08:32:47;17.97;;;3.57;;
21416;SDS011;10869;52.238;10.716;2022-09-17T08:35:13;25.23;;;3.33;;
21416;SDS011;10869;52.238;10.716;2022-09-17T08:37:41;18.00;;;3.30;;
21416;SDS011;10869;52.238;10.716;2022-09-17T08:40:09;15.10;;;3.37;;
21416;SDS011;10869;52.238;10.716;2022-09-17T08:42:40;15.10;;;3.10;;
21416;SDS011;10869;52.238;10.716;2022-09-17T08:45:17;17.30;;;3.20;;
21416;SDS011;10869;52.238;10.716;2022-09-17T08:47:43;24.00;;;3.60;;
21416;SDS011;10869;52.238;10.716;2022-09-17T08:50:24;14.20;;;2.83;;
21416;SDS011;10869;52.238;10.716;2022-09-17T09:11:12;18.17;;;3.17;;
21416;SDS011;10869;52.238;10.716;2022-09-17T09:13:48;14.07;;;3.43;;
21416;SDS011;10869;52.238;10.716;2022-09-17T09:16:21;19.60;;;4.13;;
21416;SDS011;10869;52.238;10.716;2022-09-17T09:19:01;19.07;;;4.37;;
21416;SDS011;10869;52.238;10.716;2022-09-17T09:28:00;17.80;;;3.97;;
21416;SDS011;10869;52.238;10.716;2022-09-17T09:36:29;18.03;;;3.30;;
21416;SDS011;10869;52.238;10.716;2022-09-17T09:39:11;21.80;;;3.00;;
21416;SDS011;10869;52.238;10.716;2022-09-17T09:42:02;20.73;;;3.47;;
21416;SDS011;10869;52.238;10.716;2022-09-17T09:44:33;20.07;;;3.30;;
21416;SDS011;10869;52.238;10.716;2022-09-17T09:55:26;13.73;;;3.00;;
21416;SDS011;10869;52.238;10.716;2022-09-17T09:58:29;18.67;;;3.10;;
21416;SDS011;10869;52.238;10.716;2022-09-17T10:01:00;17.80;;;2.90;;
21416;SDS011;10869;52.238;10.716;2022-09-17T10:03:27;16.53;;;3.00;;
21416;SDS011;10869;52.238;10.716;2022-09-17T10:08:23;13.53;;;2.93;;
21416;SDS011;10869;52.238;10.716;2022-09-17T10:10:54;17.80;;;3.87;;
21416;SDS011;10869;52.238;10.716;2022-09-17T10:13:19;19.00;;;3.13;;
21416;SDS011;10869;52.238;10.716;2022-09-17T10:15:45;16.80;;;3.00;;
21416;SDS011;10869;52.238;10.716;2022-09-17T10:18:15;13.83;;;2.60;;
21416;SDS011;10869;52.238;10.716;2022-09-17T10:24:22;16.80;;;3.07;;
21416;SDS011;10869;52.238;10.716;2022-09-17T10:27:00;18.37;;;3.07;;
21416;SDS011;10869;52.238;10.716;2022-09-17T10:41:55;14.50;;;2.47;;
21416;SDS011;10869;52.238;10.716;2022-09-17T10:44:22;10.87;;;2.27;;
21416;SDS011;10869;52.238;10.716;2022-09-17T10:46:50;20.90;;;4.00;;
21416;SDS011;10869;52.238;10.716;2022-09-17T10:52:31;12.87;;;2.80;;
21416;SDS011;10869;52.238;10.716;2022-09-17T11:08:56;9.13;;;2.50;;
21416;SDS011;10869;52.238;10.716;2022-09-17T11:11:59;13.40;;;3.17;;
21416;SDS011;10869;52.238;10.716;2022-09-17T11:27:35;15.80;;;2.77;;
21416;SDS011;10869;52.238;10.716;2022-09-17T11:36:12;15.63;;;2.40;;
21416;SDS011;10869;52.238;10.716;2022-09-17T11:42:05;19.60;;;1.93;;
21416;SDS011;10869;52.238;10.716;2022-09-17T11:44:46;13.47;;;2.37;;
21416;SDS011;10869;52.238;10.716;2022-09-17T11:50:46;14.13;;;2.40;;
21416;SDS011;10869;52.238;10.716;2022-09-17T11:53:24;11.57;;;2.67;;
21416;SDS011;10869;52.238;10.716;2022-09-17T12:01:20;8.33;;;1.90;;
21416;SDS011;10869;52.238;10.716;2022-09-17T12:07:33;13.70;;;2.07;;
21416;SDS011;10869;52.238;10.716;2022-09-17T12:15:41;13.47;;;3.00;;
21416;SDS011;10869;52.238;10.716;2022-09-17T12:20:56;9.13;;;1.60;;
21416;SDS011;10869;52.238;10.716;2022-09-17T12:23:30;9.03;;;1.70;;
21416;SDS011;10869;52.238;10.716;2022-09-17T12:26:26;9.00;;;1.57;;
21416;SDS011;10869;52.238;10.716;2022-09-17T12:31:45;13.80;;;2.10;;
21416;SDS011;10869;52.238;10.716;2022-09-17T12:37:35;9.60;;;1.40;;
21416;SDS011;10869;52.238;10.716;2022-09-17T13:01:33;11.50;;;1.97;;
21416;SDS011;10869;52.238;10.716;2022-09-17T13:04:10;11.03;;;1.93;;
21416;SDS011;10869;52.238;10.716;2022-09-17T13:17:57;14.87;;;2.30;;
21416;SDS011;10869;52.238;10.716;2022-09-17T13:20:36;14.30;;;2.30;;
21416;SDS011;10869;52.238;10.716;2022-09-17T13:23:05;12.27;;;1.80;;
21416;SDS011;10869;52.238;10.716;2022-09-17T13:25:32;10.10;;;2.30;;
21416;SDS011;10869;52.238;10.716;2022-09-17T13:33:59;11.90;;;1.93;;
21416;SDS011;10869;52.238;10.716;2022-09-17T13:39:48;17.20;;;2.57;;
21416;SDS011;10869;52.238;10.716;2022-09-17T13:42:28;16.03;;;3.90;;
21416;SDS011;10869;52.238;10.716;2022-09-17T13:48:21;15.40;;;3.17;;
21416;SDS011;10869;52.238;10.716;2022-09-17T13:50:51;16.47;;;4.13;;
21416;SDS011;10869;52.238;10.716;2022-09-17T13:53:18;14.87;;;2.57;;
21416;SDS011;10869;52.238;10.716;2022-09-17T13:55:56;11.23;;;2.30;;
21416;SDS011;10869;52.238;10.716;2022-09-17T14:10:32;13.33;;;2.63;;
21416;SDS011;10869;52.238;10.716;2022-09-17T14:13:20;14.47;;;2.50;;
21416;SDS011;10869;52.238;10.716;2022-09-17T14:15:57;10.27;;;1.90;;
21416;SDS011;10869;52.238;10.716;2022-09-17T14:21:03;13.73;;;1.97;;
21416;SDS011;10869;52.238;10.716;2022-09-17T14:23:40;13.37;;;3.03;;
21416;SDS011;10869;52.238;10.716;2022-09-17T14:35:48;13.63;;;2.97;;
21416;SDS011;10869;52.238;10.716;2022-09-17T14:54:06;13.90;;;2.40;;
21416;SDS011;10869;52.238;10.716;2022-09-17T15:02:54;9.13;;;1.50;;
21416;SDS011;10869;52.238;10.716;2022-09-17T15:11:20;11.37;;;2.00;;
21416;SDS011;10869;52.238;10.716;2022-09-17T15:13:49;9.17;;;1.97;;
21416;SDS011;10869;52.238;10.716;2022-09-17T15:16:27;12.67;;;2.80;;
21416;SDS011;10869;52.238;10.716;2022-09-17T15:19:08;9.03;;;2.30;;
21416;SDS011;10869;52.238;10.716;2022-09-17T15:21:45;12.43;;;2.23;;
21416;SDS011;10869;52.238;10.716;2022-09-17T15:24:20;11.57;;;1.70;;
21416;SDS011;10869;52.238;10.716;2022-09-17T15:27:21;9.73;;;2.60;;
21416;SDS011;10869;52.238;10.716;2022-09-17T15:33:17;7.67;;;2.00;;
21416;SDS011;10869;52.238;10.716;2022-09-17T15:36:18;11.33;;;1.80;;
21416;SDS011;10869;52.238;10.716;2022-09-17T15:38:46;10.67;;;1.80;;
21416;SDS011;10869;52.238;10.716;2022-09-17T15:44:20;9.70;;;1.50;;
21416;SDS011;10869;52.238;10.716;2022-09-17T15:46:48;9.63;;;2.03;;
21416;SDS011;10869;52.238;10.716;2022-09-17T15:52:33;15.20;;;2.37;;
21416;SDS011;10869;52.238;10.716;2022-09-17T15:55:00;9.10;;;2.10;;
21416;SDS011;10869;52.238;10.716;2022-09-17T15:57:26;13.97;;;3.37;;
21416;SDS011;10869;52.238;10.716;2022-09-17T15:59:55;11.90;;;2.30;;
21416;SDS011;10869;52.238;10.716;2022-09-17T16:02:31;14.43;;;2.53;;
21416;SDS011;10869;52.238;10.716;2022-09-17T16:05:42;16.70;;;2.80;;
21416;SDS011;10869;52.238;10.716;2022-09-17T16:08:16;14.43;;;2.53;;
21416;SDS011;10869;52.238;10.716;2022-09-17T16:10:47;7.73;;;2.03;;
21416;SDS011;10869;52.238;10.716;2022-09-17T16:13:13;14.10;;;2.17;;
21416;SDS011;10869;52.238;10.716;2022-09-17T16:15:38;13.43;;;2.00;;
21416;SDS011;10869;52.238;10.716;2022-09-17T16:18:04;13.77;;;2.17;;
21416;SDS011;10869;52.238;10.716;2022-09-17T16:20:31;14.70;;;2.00;;
21416;SDS011;10869;52.238;10.716;2022-09-17T16:22:57;13.97;;;2.77;;
21416;SDS011;10869;52.238;10.716;2022-09-17T16:25:23;12.43;;;2.67;;
21416;SDS011;10869;52.238;10.716;2022-09-17T16:31:13;11.43;;;2.20;;
21416;SDS011;10869;52.238;10.716;2022-09-17T16:37:01;22.10;;;3.20;;
21416;SDS011;10869;52.238;10.716;2022-09-17T16:39:26;14.90;;;2.97;;
21416;SDS011;10869;52.238;10.716;2022-09-17T16:41:52;14.47;;;1.93;;
21416;SDS011;10869;52.238;10.716;2022-09-17T16:47:40;16.73;;;3.10;;
21416;SDS011;10869;52.238;10.716;2022-09-17T16:53:28;16.57;;;2.87;;
21416;SDS011;10869;52.238;10.716;2022-09-17T16:55:54;14.07;;;2.53;;
21416;SDS011;10869;52.238;10.716;2022-09-17T17:01:42;16.33;;;2.73;;
21416;SDS011;10869;52.238;10.716;2022-09-17T17:07:22;10.73;;;3.40;;
21416;SDS011;10869;52.238;10.716;2022-09-17T17:09:47;15.30;;;2.60;;
21416;SDS011;10869;52.238;10.716;2022-09-17T17:12:14;16.17;;;3.10;;
21416;SDS011;10869;52.238;10.716;2022-09-17T17:14:40;17.97;;;4.47;;
21416;SDS011;10869;52.238;10.716;2022-09-17T17:17:05;11.77;;;2.87;;
21416;SDS011;10869;52.238;10.716;2022-09-17T17:19:31;13.80;;;3.67;;
21416;SDS011;10869;52.238;10.716;2022-09-17T17:21:58;10.63;;;3.03;;
21416;SDS011;10869;52.238;10.716;2022-09-17T17:24:24;17.07;;;3.77;;
21416;SDS011;10869;52.238;10.716;2022-09-17T17:30:12;19.53;;;3.93;;
21416;SDS011;10869;52.238;10.716;2022-09-17T17:32:41;15.57;;;3.63;;
21416;SDS011;10869;52.238;10.716;2022-09-17T17:35:08;19.03;;;3.53;;
21416;SDS011;10869;52.238;10.716;2022-09-17T17:41:18;15.43;;;4.43;;
21416;SDS011;10869;52.238;10.716;2022-09-17T17:43:46;21.90;;;6.73;;
21416;SDS011;10869;52.238;10.716;2022-09-17T17:46:12;21.73;;;5.83;;
21416;SDS011;10869;52.238;10.716;2022-09-17T17:48:39;27.13;;;9.67;;
21416;SDS011;10869;52.238;10.716;2022-09-17T17:51:08;25.10;;;6.07;;
21416;SDS011;10869;52.238;10.716;2022-09-17T17:53:35;24.90;;;5.10;;
21416;SDS011;10869;52.238;10.716;2022-09-17T17:56:03;22.07;;;3.83;;
21416;SDS011;10869;52.238;10.716;2022-09-17T17:58:31;17.57;;;3.40;;
21416;SDS011;10869;52.238;10.716;2022-09-17T18:00:58;24.07;;;5.07;;
21416;SDS011;10869;52.238;10.716;2022-09-17T18:03:24;30.17;;;9.30;;
21416;SDS011;10869;52.238;10.716;2022-09-17T18:09:19;21.37;;;7.03;;
21416;SDS011;10869;52.238;10.716;2022-09-17T18:11:45;14.43;;;3.37;;
21416;SDS011;10869;52.238;10.716;2022-09-17T18:14:11;24.40;;;4.97;;
21416;SDS011;10869;52.238;10.716;2022-09-17T18:16:38;12.90;;;3.87;;
21416;SDS011;10869;52.238;10.716;2022-09-17T18:19:04;26.00;;;4.47;;
21416;SDS011;10869;52.238;10.716;2022-09-17T18:21:30;18.03;;;3.63;;
21416;SDS011;10869;52.238;10.716;2022-09-17T18:23:56;21.50;;;4.57;;
21416;SDS011;10869;52.238;10.716;2022-09-17T18:29:44;43.73;;;24.93;;
21416;SDS011;10869;52.238;10.716;2022-09-17T18:32:10;17.63;;;7.70;;
21416;SDS011;10869;52.238;10.716;2022-09-17T18:34:35;24.17;;;8.50;;
21416;SDS011;10869;52.238;10.716;2022-09-17T18:37:01;30.50;;;6.50;;
21416;SDS011;10869;52.238;10.716;2022-09-17T18:39:27;29.40;;;4.67;;
21416;SDS011;10869;52.238;10.716;2022-09-17T18:41:53;16.37;;;4.17;;
21416;SDS011;10869;52.238;10.716;2022-09-17T18:44:19;24.93;;;7.93;;
21416;SDS011;10869;52.238;10.716;2022-09-17T18:46:46;17.33;;;6.90;;
21416;SDS011;10869;52.238;10.716;2022-09-17T18:49:13;25.20;;;7.90;;
21416;SDS011;10869;52.238;10.716;2022-09-17T18:51:39;22.13;;;9.87;;
21416;SDS011;10869;52.238;10.716;2022-09-17T18:54:05;18.90;;;6.93;;
21416;SDS011;10869;52.238;10.716;2022-09-17T18:56:34;20.50;;;4.80;;
21416;SDS011;10869;52.238;10.716;2022-09-17T18:59:00;21.83;;;6.50;;
21416;SDS011;10869;52.238;10.716;2022-09-17T19:01:27;23.90;;;7.60;;
21416;SDS011;10869;52.238;10.716;2022-09-17T19:03:54;26.10;;;10.20;;
21416;SDS011;10869;52.238;10.716;2022-09-17T19:09:43;27.00;;;11.40;;
21416;SDS011;10869;52.238;10.716;2022-09-17T19:15:33;21.33;;;7.57;;
21416;SDS011;10869;52.238;10.716;2022-09-17T19:18:28;20.23;;;3.53;;
21416;SDS011;10869;52.238;10.716;2022-09-17T19:21:00;16.77;;;6.23;;
21416;SDS011;10869;52.238;10.716;2022-09-17T19:26:49;15.23;;;3.10;;
21416;SDS011;10869;52.238;10.716;2022-09-17T19:29:15;27.97;;;5.67;;
21416;SDS011;10869;52.238;10.716;2022-09-17T19:31:41;15.37;;;3.87;;
21416;SDS011;10869;52.238;10.716;2022-09-17T19:34:07;13.83;;;2.93;;
21416;SDS011;10869;52.238;10.716;2022-09-17T19:36:32;11.43;;;3.73;;
21416;SDS011;10869;52.238;10.716;2022-09-17T19:38:58;17.23;;;4.47;;
21416;SDS011;10869;52.238;10.716;2022-09-17T19:41:24;14.63;;;4.43;;
21416;SDS011;10869;52.238;10.716;2022-09-17T19:43:50;20.73;;;4.73;;
21416;SDS011;10869;52.238;10.716;2022-09-17T19:46:18;17.23;;;3.83;;
21416;SDS011;10869;52.238;10.716;2022-09-17T19:48:46;20.17;;;3.30;;
21416;SDS011;10869;52.238;10.716;2022-09-17T19:51:13;18.63;;;3.83;;
21416;SDS011;10869;52.238;10.716;2022-09-17T19:53:39;14.83;;;3.20;;
21416;SDS011;10869;52.238;10.716;2022-09-17T19:56:09;21.63;;;3.83;;
21416;SDS011;10869;52.238;10.716;2022-09-17T19:58:37;21.77;;;3.80;;
21416;SDS011;10869;52.238;10.716;2022-09-17T20:01:05;19.93;;;3.87;;
21416;SDS011;10869;52.238;10.716;2022-09-17T20:03:31;22.33;;;4.33;;
21416;SDS011;10869;52.238;10.716;2022-09-17T20:05:58;21.03;;;3.50;;
21416;SDS011;10869;52.238;10.716;2022-09-17T20:08:25;26.27;;;5.67;;
21416;SDS011;10869;52.238;10.716;2022-09-17T20:11:02;17.70;;;3.73;;
21416;SDS011;10869;52.238;10.716;2022-09-17T20:13:34;21.20;;;4.03;;
21416;SDS011;10869;52.238;10.716;2022-09-17T20:16:04;19.67;;;3.07;;
21416;SDS011;10869;52.238;10.716;2022-09-17T20:18:37;29.47;;;5.43;;
21416;SDS011;10869;52.238;10.716;2022-09-17T20:21:13;24.63;;;4.37;;
21416;SDS011;10869;52.238;10.716;2022-09-17T20:23:39;29.53;;;4.50;;
21416;SDS011;10869;52.238;10.716;2022-09-17T20:26:05;28.93;;;5.03;;
21416;SDS011;10869;52.238;10.716;2022-09-17T20:31:59;26.53;;;8.37;;
21416;SDS011;10869;52.238;10.716;2022-09-17T20:34:30;33.13;;;5.47;;
21416;SDS011;10869;52.238;10.716;2022-09-17T20:36:56;20.47;;;5.27;;
21416;SDS011;10869;52.238;10.716;2022-09-17T20:39:22;34.70;;;9.10;;
21416;SDS011;10869;52.238;10.716;2022-09-17T20:41:47;26.17;;;5.23;;
21416;SDS011;10869;52.238;10.716;2022-09-17T20:44:13;23.37;;;5.63;;
21416;SDS011;10869;52.238;10.716;2022-09-17T20:50:01;35.93;;;7.10;;
21416;SDS011;10869;52.238;10.716;2022-09-17T20:52:27;38.10;;;5.20;;
21416;SDS011;10869;52.238;10.716;2022-09-17T20:54:53;22.63;;;5.57;;
21416;SDS011;10869;52.238;10.716;2022-09-17T20:57:19;26.20;;;5.90;;
21416;SDS011;10869;52.238;10.716;2022-09-17T20:59:44;29.13;;;6.00;;
21416;SDS011;10869;52.238;10.716;2022-09-17T21:02:17;29.17;;;7.30;;
21416;SDS011;10869;52.238;10.716;2022-09-17T21:08:07;37.27;;;6.73;;
21416;SDS011;10869;52.238;10.716;2022-09-17T21:10:33;26.23;;;5.50;;
21416;SDS011;10869;52.238;10.716;2022-09-17T21:12:58;45.93;;;10.00;;
21416;SDS011;10869;52.238;10.716;2022-09-17T21:15:24;37.80;;;9.17;;
21416;SDS011;10869;52.238;10.716;2022-09-17T21:17:50;27.57;;;6.70;;
21416;SDS011;10869;52.238;10.716;2022-09-17T21:20:25;20.07;;;5.87;;
21416;SDS011;10869;52.238;10.716;2022-09-17T21:22:50;23.23;;;5.63;;
21416;SDS011;10869;52.238;10.716;2022-09-17T21:25:16;31.47;;;8.83;;
21416;SDS011;10869;52.238;10.716;2022-09-17T21:27:42;36.03;;;8.23;;
21416;SDS011;10869;52.238;10.716;2022-09-17T21:30:08;29.07;;;7.80;;
21416;SDS011;10869;52.238;10.716;2022-09-17T21:32:34;30.73;;;8.37;;
21416;SDS011;10869;52.238;10.716;2022-09-17T21:35:02;34.87;;;7.67;;
21416;SDS011;10869;52.238;10.716;2022-09-17T21:37:28;32.63;;;6.00;;
21416;SDS011;10869;52.238;10.716;2022-09-17T21:39:54;20.30;;;5.53;;
21416;SDS011;10869;52.238;10.716;2022-09-17T21:42:22;30.00;;;7.00;;
21416;SDS011;10869;52.238;10.716;2022-09-17T21:45:03;32.43;;;5.83;;
21416;SDS011;10869;52.238;10.716;2022-09-17T21:47:50;28.70;;;5.00;;
21416;SDS011;10869;52.238;10.716;2022-09-17T21:50:16;21.40;;;5.50;;
21416;SDS011;10869;52.238;10.716;2022-09-17T21:52:42;26.77;;;5.90;;
21416;SDS011;10869;52.238;10.716;2022-09-17T21:55:08;22.30;;;4.17;;
21416;SDS011;10869;52.238;10.716;2022-09-17T21:57:34;28.83;;;4.63;;
21416;SDS011;10869;52.238;10.716;2022-09-17T22:00:00;25.87;;;4.97;;
21416;SDS011;10869;52.238;10.716;2022-09-17T22:02:26;34.53;;;5.73;;
21416;SDS011;10869;52.238;10.716;2022-09-17T22:04:51;34.70;;;6.37;;
21416;SDS011;10869;52.238;10.716;2022-09-17T22:07:17;26.50;;;5.30;;
21416;SDS011;10869;52.238;10.716;2022-09-17T22:09:43;27.93;;;5.10;;
21416;SDS011;10869;52.238;10.716;2022-09-17T22:12:09;30.00;;;6.80;;
21416;SDS011;10869;52.238;10.716;2022-09-17T22:14:35;31.43;;;5.27;;
21416;SDS011;10869;52.238;10.716;2022-09-17T22:17:01;29.27;;;5.27;;
21416;SDS011;10869;52.238;10.716;2022-09-17T22:19:27;23.30;;;5.30;;
21416;SDS011;10869;52.238;10.716;2022-09-17T22:21:53;24.40;;;5.47;;
21416;SDS011;10869;52.238;10.716;2022-09-17T22:24:20;27.27;;;4.13;;
21416;SDS011;10869;52.238;10.716;2022-09-17T22:26:48;23.60;;;3.80;;
21416;SDS011;10869;52.238;10.716;2022-09-17T22:29:17;30.43;;;4.77;;
21416;SDS011;10869;52.238;10.716;2022-09-17T22:31:44;21.50;;;3.43;;
21416;SDS011;10869;52.238;10.716;2022-09-17T22:34:15;18.83;;;3.53;;
21416;SDS011;10869;52.238;10.716;2022-09-17T22:40:05;30.83;;;4.77;;
21416;SDS011;10869;52.238;10.716;2022-09-17T22:42:31;27.10;;;4.93;;
21416;SDS011;10869;52.238;10.716;2022-09-17T22:44:57;22.00;;;3.97;;
21416;SDS011;10869;52.238;10.716;2022-09-17T22:47:22;19.37;;;3.27;;
21416;SDS011;10869;52.238;10.716;2022-09-17T22:49:48;33.53;;;4.60;;